Time;durP1;ratioP1;P1;durP2;ratioP2;P2;SDS_P1;SDS_P2;PMS_P1;PMS_P2;Temp;Humidity;BMP_temperature;BMP_pressure;BME280_temperature;BME280_humidity;BME280_pressure;Samples;Min_cycle;Max_cycle;Signal;HPM_P1;HPM_P2
2023/10/23 00:01:10;;;;;;;5.47;1.90;;;13.00;99.90;;;;;;4149711;28;20072;-66
2023/10/23 00:03:11;;;;;;;3.83;2.20;;;13.00;99.90;;;;;;4145265;28;20643;-66
2023/10/23 00:05:12;;;;;;;3.30;1.98;;;13.00;99.90;;;;;;4146842;28;20390;-66
2023/10/23 00:07:12;;;;;;;3.67;2.20;;;13.00;99.90;;;;;;4146468;28;20044;-66
2023/10/23 00:09:14;;;;;;;4.13;1.88;;;13.00;99.90;;;;;;4152736;28;20065;-66
2023/10/23 00:11:25;;;;;;;2.85;1.80;;;13.00;99.90;;;;;;4151231;28;20091;-66
2023/10/23 00:13:26;;;;;;;2.25;1.52;;;13.00;99.90;;;;;;4145881;28;20048;-66
2023/10/23 00:15:26;;;;;;;3.15;1.48;;;13.00;99.90;;;;;;4150029;28;20041;-66
2023/10/23 00:17:27;;;;;;;1.38;1.25;;;12.90;99.90;;;;;;4138112;28;20045;-66
2023/10/23 00:19:27;;;;;;;2.15;1.50;;;12.90;99.90;;;;;;4151745;28;20063;-66
2023/10/23 00:21:28;;;;;;;2.72;1.73;;;12.90;99.90;;;;;;4151303;28;20081;-66
2023/10/23 00:23:28;;;;;;;2.35;1.65;;;12.90;99.90;;;;;;4153261;28;20038;-66
2023/10/23 00:25:29;;;;;;;1.90;1.40;;;12.90;99.90;;;;;;4150877;28;20341;-66
2023/10/23 00:27:30;;;;;;;3.05;1.55;;;12.80;99.90;;;;;;4149679;28;20054;-66
2023/10/23 00:29:30;;;;;;;2.03;1.50;;;12.80;99.90;;;;;;4130134;28;20612;-66
2023/10/23 00:31:31;;;;;;;3.30;1.83;;;12.80;99.90;;;;;;4123704;28;20034;-67
2023/10/23 00:33:32;;;;;;;2.88;1.58;;;12.80;99.90;;;;;;4127094;28;20034;-67
2023/10/23 00:35:32;;;;;;;1.95;1.50;;;12.80;99.90;;;;;;4123943;28;20088;-66
2023/10/23 00:37:34;;;;;;;3.35;1.70;;;12.80;99.90;;;;;;4123271;28;20023;-66
2023/10/23 00:39:35;;;;;;;2.73;1.73;;;12.80;99.90;;;;;;4108809;28;20684;-66
2023/10/23 00:41:35;;;;;;;3.38;1.92;;;12.80;99.90;;;;;;4126251;28;20046;-66
2023/10/23 00:43:36;;;;;;;2.47;1.60;;;12.80;99.90;;;;;;4124901;28;20105;-66
2023/10/23 00:45:40;;;;;;;3.15;1.80;;;12.80;99.90;;;;;;4124269;28;20031;-66
2023/10/23 00:47:40;;;;;;;2.58;1.65;;;12.70;99.90;;;;;;4123531;28;20038;-67
2023/10/23 00:49:41;;;;;;;3.72;1.63;;;12.70;99.90;;;;;;4125173;28;20070;-66
2023/10/23 00:51:42;;;;;;;3.60;1.98;;;12.70;99.90;;;;;;4106572;28;20490;-66
2023/10/23 00:53:43;;;;;;;2.85;2.13;;;12.70;99.90;;;;;;4125965;28;20129;-66
2023/10/23 00:55:45;;;;;;;3.33;1.80;;;12.70;99.90;;;;;;4123739;28;20042;-66
2023/10/23 00:57:46;;;;;;;3.15;1.63;;;12.70;99.90;;;;;;4124035;28;20062;-67
2023/10/23 00:59:47;;;;;;;2.70;1.67;;;12.70;99.90;;;;;;4108657;28;20101;-67
2023/10/23 01:01:48;;;;;;;3.45;2.05;;;12.70;99.90;;;;;;4122728;28;20096;-66
2023/10/23 01:03:48;;;;;;;2.67;1.80;;;12.60;99.90;;;;;;4124205;28;20035;-71
2023/10/23 01:05:49;;;;;;;2.72;1.50;;;12.60;99.90;;;;;;4123123;28;20070;-72
2023/10/23 01:07:50;;;;;;;2.78;1.60;;;12.60;99.90;;;;;;4125836;28;20096;-72
2023/10/23 01:09:51;;;;;;;2.35;1.58;;;12.50;99.90;;;;;;4130339;28;23914;-72
2023/10/23 01:11:51;;;;;;;2.78;2.13;;;12.60;99.90;;;;;;4126232;28;20483;-72
2023/10/23 01:13:52;;;;;;;2.72;1.80;;;12.50;99.90;;;;;;4128199;28;20035;-72
2023/10/23 01:15:53;;;;;;;2.78;1.65;;;12.50;99.90;;;;;;4126335;28;20034;-72
2023/10/23 01:17:55;;;;;;;3.63;1.98;;;12.50;99.90;;;;;;4108503;28;20119;-72
2023/10/23 01:19:55;;;;;;;1.67;1.58;;;12.50;99.90;;;;;;4127434;28;20034;-72
2023/10/23 01:21:56;;;;;;;1.92;1.50;;;12.50;99.90;;;;;;4108688;28;20023;-72
2023/10/23 01:23:58;;;;;;;2.15;1.50;;;12.40;99.90;;;;;;4127374;28;20117;-72
2023/10/23 01:25:59;;;;;;;5.00;2.28;;;12.40;99.90;;;;;;4128330;28;20030;-72
2023/10/23 01:28:00;;;;;;;2.28;1.70;;;12.40;99.90;;;;;;4126388;28;20039;-72
2023/10/23 01:30:01;;;;;;;2.30;1.70;;;12.40;99.90;;;;;;4142315;28;20049;-72
2023/10/23 01:32:03;;;;;;;1.75;1.50;;;12.40;99.90;;;;;;4151434;28;20117;-70
2023/10/23 01:34:03;;;;;;;3.63;1.70;;;12.40;99.90;;;;;;4152882;28;20033;-72
2023/10/23 01:36:04;;;;;;;1.98;1.67;;;12.40;99.90;;;;;;4142391;28;20273;-71
2023/10/23 01:38:04;;;;;;;2.92;1.90;;;12.40;99.90;;;;;;4151381;28;20034;-72
2023/10/23 01:40:05;;;;;;;2.10;1.70;;;12.30;99.90;;;;;;4154248;28;20060;-73
2023/10/23 01:42:06;;;;;;;2.92;1.40;;;12.30;99.90;;;;;;4152797;28;20088;-72
2023/10/23 01:44:07;;;;;;;2.38;1.70;;;12.30;99.90;;;;;;4151059;28;20018;-72
2023/10/23 01:46:07;;;;;;;1.58;1.33;;;12.30;99.90;;;;;;4147403;28;20521;-73
2023/10/23 01:48:08;;;;;;;2.78;1.80;;;12.20;99.90;;;;;;4149325;28;20025;-72
2023/10/23 01:50:09;;;;;;;2.50;1.55;;;12.30;99.90;;;;;;4144562;28;20041;-73
2023/10/23 01:52:10;;;;;;;3.92;1.80;;;12.20;99.90;;;;;;4141876;28;20114;-72
2023/10/23 01:54:10;;;;;;;2.15;1.40;;;12.20;99.90;;;;;;4151222;28;20509;-71
2023/10/23 01:56:11;;;;;;;1.83;1.35;;;12.20;99.90;;;;;;4141631;28;20541;-72
2023/10/23 01:58:11;;;;;;;2.53;1.70;;;12.10;99.90;;;;;;4144745;28;20037;-71
2023/10/23 02:00:13;;;;;;;3.42;1.60;;;12.10;99.90;;;;;;4151727;28;20042;-72
2023/10/23 02:02:14;;;;;;;2.80;1.55;;;12.10;99.90;;;;;;4156572;28;20570;-72
2023/10/23 02:04:14;;;;;;;2.78;1.50;;;12.10;99.90;;;;;;4152902;28;20132;-72
2023/10/23 02:06:16;;;;;;;3.38;1.50;;;12.10;99.90;;;;;;4151188;28;20030;-71
2023/10/23 02:08:18;;;;;;;2.10;1.63;;;12.10;99.90;;;;;;4147853;28;20477;-72
2023/10/23 02:10:19;;;;;;;;;;;12.10;99.90;;;;;;4152175;28;20034;-72
2023/10/23 02:12:19;;;;;;;4.40;1.70;;;12.10;99.90;;;;;;4152233;28;20424;-71
2023/10/23 02:14:20;;;;;;;2.88;1.83;;;12.10;99.90;;;;;;4148753;28;20125;-72
2023/10/23 02:16:21;;;;;;;4.47;2.10;;;12.00;99.90;;;;;;4154099;28;20095;-72
2023/10/23 02:18:21;;;;;;;2.20;1.90;;;12.00;99.90;;;;;;4142877;28;20049;-72
2023/10/23 02:20:22;;;;;;;2.10;1.88;;;12.00;99.90;;;;;;4144870;28;20045;-72
2023/10/23 02:22:22;;;;;;;3.13;1.60;;;12.00;99.90;;;;;;4143955;28;20553;-72
2023/10/23 02:24:23;;;;;;;3.65;1.63;;;12.00;99.90;;;;;;4150525;28;20042;-72
2023/10/23 02:26:25;;;;;;;1.58;1.30;;;11.90;99.90;;;;;;4147761;28;20033;-72
2023/10/23 02:28:26;;;;;;;3.22;1.73;;;12.00;99.90;;;;;;4141919;28;20061;-72
2023/10/23 02:30:27;;;;;;;3.50;1.58;;;11.90;99.90;;;;;;4125697;28;20038;-72
2023/10/23 02:32:27;;;;;;;2.78;1.67;;;11.90;99.90;;;;;;4129783;28;20371;-72
2023/10/23 02:34:28;;;;;;;1.67;1.45;;;11.80;99.90;;;;;;4126067;28;20038;-72
2023/10/23 02:36:28;;;;;;;2.80;1.60;;;11.80;99.90;;;;;;4124295;28;20042;-72
2023/10/23 02:38:29;;;;;;;2.78;1.40;;;11.80;99.90;;;;;;4125761;28;20038;-72
2023/10/23 02:40:30;;;;;;;3.05;1.52;;;11.80;99.90;;;;;;4126041;28;20104;-72
2023/10/23 02:42:30;;;;;;;2.33;1.45;;;11.80;99.90;;;;;;4126039;28;20192;-72
2023/10/23 02:44:31;;;;;;;2.45;1.50;;;11.70;99.90;;;;;;4125872;28;20043;-72
2023/10/23 02:46:35;;;;;;;2.67;1.42;;;11.70;99.90;;;;;;4123959;28;20117;-70
2023/10/23 02:48:37;;;;;;;3.15;1.35;;;11.70;99.90;;;;;;4125626;28;20038;-72
2023/10/23 02:50:38;;;;;;;2.40;1.30;;;11.70;99.90;;;;;;4110432;28;20081;-71
2023/10/23 02:52:38;;;;;;;0.95;0.75;;;11.60;99.90;;;;;;4125585;28;20042;-71
2023/10/23 02:54:39;;;;;;;1.15;1.00;;;11.60;99.90;;;;;;4108247;28;20522;-72
2023/10/23 02:56:39;;;;;;;0.80;0.80;;;11.50;99.90;;;;;;4124237;28;20035;-71
2023/10/23 02:58:40;;;;;;;1.30;0.95;;;11.50;99.90;;;;;;4124609;28;20129;-71
2023/10/23 03:00:42;;;;;;;0.82;0.82;;;11.50;99.90;;;;;;4125741;28;20038;-72
2023/10/23 03:02:44;;;;;;;1.53;1.10;;;11.40;99.90;;;;;;4125295;28;20462;-71
2023/10/23 03:04:44;;;;;;;1.33;1.17;;;11.50;99.90;;;;;;4125449;28;20100;-71
2023/10/23 03:06:45;;;;;;;1.77;1.20;;;11.40;99.90;;;;;;4109080;28;20035;-71
2023/10/23 03:08:46;;;;;;;1.38;1.13;;;11.40;99.90;;;;;;4108805;28;20031;-71
2023/10/23 03:10:46;;;;;;;3.92;1.17;;;11.40;99.90;;;;;;4125798;28;20431;-71
2023/10/23 03:12:47;;;;;;;2.10;1.50;;;11.40;99.90;;;;;;4126780;28;20045;-71
2023/10/23 03:14:47;;;;;;;1.60;1.13;;;11.40;99.90;;;;;;4124270;28;20054;-72
2023/10/23 03:16:48;;;;;;;2.38;1.27;;;11.40;99.90;;;;;;4124487;28;20057;-72
2023/10/23 03:18:49;;;;;;;1.77;1.15;;;11.40;99.90;;;;;;4125627;28;20039;-71
2023/10/23 03:20:49;;;;;;;2.13;1.40;;;11.40;99.90;;;;;;4125533;28;20038;-72
2023/10/23 03:22:50;;;;;;;2.58;1.90;;;11.40;99.90;;;;;;4125738;28;20117;-72
2023/10/23 03:24:50;;;;;;;3.20;1.40;;;11.40;99.90;;;;;;4126311;28;20046;-71
2023/10/23 03:26:51;;;;;;;2.65;1.45;;;11.40;99.90;;;;;;4130314;28;20054;-71
2023/10/23 03:28:52;;;;;;;2.75;1.35;;;11.40;99.90;;;;;;4122675;28;20045;-71
2023/10/23 03:30:52;;;;;;;2.83;1.58;;;11.40;99.90;;;;;;4154678;28;20128;-71
2023/10/23 03:32:53;;;;;;;2.33;1.38;;;11.40;99.90;;;;;;4150840;28;20046;-71
2023/10/23 03:34:53;;;;;;;1.92;1.30;;;11.30;99.90;;;;;;4149237;28;20060;-71
2023/10/23 03:36:54;;;;;;;2.70;1.35;;;11.30;99.90;;;;;;4148003;28;20030;-71
2023/10/23 03:38:55;;;;;;;3.47;1.48;;;11.30;99.90;;;;;;4144445;28;20032;-71
2023/10/23 03:40:57;;;;;;;1.58;1.15;;;11.30;99.90;;;;;;4136762;28;20049;-71
2023/10/23 03:42:58;;;;;;;1.65;1.30;;;11.30;99.90;;;;;;4151931;28;20045;-71
2023/10/23 03:44:58;;;;;;;1.80;1.38;;;11.30;99.90;;;;;;4148131;28;20478;-71
2023/10/23 03:46:59;;;;;;;1.52;1.20;;;11.30;99.90;;;;;;4147694;28;20037;-71
2023/10/23 03:49:00;;;;;;;1.80;1.10;;;11.30;99.90;;;;;;4147421;28;20132;-71
2023/10/23 03:51:01;;;;;;;1.15;1.00;;;11.20;99.90;;;;;;4148829;28;20084;-71
2023/10/23 03:53:01;;;;;;;1.30;1.08;;;11.20;99.90;;;;;;4144692;28;20026;-71
2023/10/23 03:55:02;;;;;;;0.80;0.80;;;11.20;99.90;;;;;;4156618;28;20045;-72
2023/10/23 03:57:03;;;;;;;1.50;1.20;;;11.20;99.90;;;;;;4144100;28;20042;-71
2023/10/23 03:59:03;;;;;;;1.50;1.20;;;11.10;99.90;;;;;;4142846;28;20026;-71
2023/10/23 04:01:04;;;;;;;2.03;1.38;;;11.20;99.90;;;;;;4150569;28;20445;-70
2023/10/23 04:03:10;;;;;;;1.77;1.35;;;11.20;99.90;;;;;;4153752;28;20029;-70
2023/10/23 04:05:11;;;;;;;2.00;1.55;;;11.20;99.90;;;;;;4146119;28;20022;-71
2023/10/23 04:07:12;;;;;;;2.10;1.38;;;11.20;99.90;;;;;;4145970;28;20041;-70
2023/10/23 04:09:12;;;;;;;2.65;1.40;;;11.10;99.90;;;;;;4144512;28;20042;-71
2023/10/23 04:11:14;;;;;;;2.03;1.30;;;11.20;99.90;;;;;;4149221;28;20042;-70
2023/10/23 04:13:15;;;;;;;2.33;1.40;;;11.10;99.90;;;;;;4146161;28;20038;-71
2023/10/23 04:15:16;;;;;;;3.75;1.38;;;11.10;99.90;;;;;;4139156;28;20104;-71
2023/10/23 04:17:17;;;;;;;0.73;0.73;;;11.10;99.90;;;;;;4153671;28;20041;-71
2023/10/23 04:19:17;;;;;;;1.90;1.00;;;11.10;99.90;;;;;;4147032;28;20065;-71
2023/10/23 04:21:18;;;;;;;1.15;1.05;;;11.10;99.90;;;;;;4149897;28;20049;-71
2023/10/23 04:23:18;;;;;;;1.80;1.05;;;11.10;99.90;;;;;;4151912;28;20034;-71
2023/10/23 04:25:20;;;;;;;2.25;1.30;;;11.10;99.90;;;;;;4134542;28;20036;-71
2023/10/23 04:27:20;;;;;;;2.20;1.27;;;11.10;99.90;;;;;;4146557;28;20034;-71
2023/10/23 04:29:21;;;;;;;1.95;1.38;;;11.00;99.90;;;;;;4145985;28;20394;-71
2023/10/23 04:31:22;;;;;;;2.25;1.40;;;11.10;99.90;;;;;;4144099;28;20584;-71
2023/10/23 04:33:23;;;;;;;3.65;1.50;;;11.00;99.90;;;;;;4145641;28;20435;-80
2023/10/23 04:35:24;;;;;;;2.47;1.23;;;11.00;99.90;;;;;;4140500;28;20042;-82
2023/10/23 04:37:24;;;;;;;2.60;1.60;;;11.00;99.90;;;;;;4141056;28;20041;-82
2023/10/23 04:39:25;;;;;;;2.10;1.60;;;11.00;99.90;;;;;;4137789;28;20069;-82
2023/10/23 04:41:25;;;;;;;2.85;1.75;;;11.10;99.90;;;;;;4143985;28;20045;-82
2023/10/23 04:43:26;;;;;;;2.47;1.27;;;11.00;99.90;;;;;;4144175;28;20048;-86
2023/10/23 04:45:26;;;;;;;2.42;1.50;;;11.00;99.90;;;;;;4143951;28;20038;-82
2023/10/23 04:47:27;;;;;;;2.38;1.40;;;11.00;99.90;;;;;;4152958;28;20037;-82
2023/10/23 04:49:28;;;;;;;2.40;1.60;;;11.00;99.90;;;;;;4147412;28;20037;-82
2023/10/23 04:51:28;;;;;;;3.35;1.70;;;11.00;99.90;;;;;;4150108;28;20069;-81
2023/10/23 04:53:29;;;;;;;2.20;1.52;;;11.00;99.90;;;;;;4146920;28;20084;-82
2023/10/23 04:55:34;;;;;;;2.40;1.80;;;10.90;99.90;;;;;;4156844;28;20042;-82
2023/10/23 04:57:35;;;;;;;2.22;1.33;;;10.90;99.90;;;;;;4148008;28;20061;-83
2023/10/23 04:59:35;;;;;;;1.30;1.20;;;10.90;99.90;;;;;;4147669;28;20026;-80
2023/10/23 05:01:36;;;;;;;1.67;1.10;;;10.80;99.90;;;;;;4138922;28;20125;-83
2023/10/23 05:03:36;;;;;;;1.60;1.08;;;10.80;99.90;;;;;;4147797;28;20788;-83
2023/10/23 05:05:37;;;;;;;1.50;1.08;;;10.80;99.90;;;;;;4147883;28;20050;-82
2023/10/23 05:07:38;;;;;;;1.88;0.90;;;10.70;99.90;;;;;;4145384;28;20124;-83
2023/10/23 05:09:38;;;;;;;3.50;1.25;;;10.70;99.90;;;;;;4146222;28;20038;-82
2023/10/23 05:11:39;;;;;;;3.97;1.10;;;10.70;99.90;;;;;;4143562;28;20041;-83
2023/10/23 05:13:39;;;;;;;1.63;1.15;;;10.70;99.90;;;;;;4149868;28;20292;-83
2023/10/23 05:15:40;;;;;;;1.65;1.13;;;10.70;99.90;;;;;;4147630;28;20041;-84
2023/10/23 05:17:40;;;;;;;2.05;1.10;;;10.70;99.90;;;;;;4147170;28;20348;-85
2023/10/23 05:19:45;;;;;;;1.00;0.80;;;10.70;99.90;;;;;;4146031;28;20119;-84
2023/10/23 05:21:46;;;;;;;1.60;1.15;;;10.70;99.90;;;;;;4144539;28;20516;-84
2023/10/23 05:23:46;;;;;;;2.15;1.35;;;10.60;99.90;;;;;;4151200;28;20030;-83
2023/10/23 05:25:48;;;;;;;3.30;1.33;;;10.60;99.90;;;;;;4149225;28;20460;-83
2023/10/23 05:27:48;;;;;;;3.13;1.30;;;10.60;99.90;;;;;;4164155;28;20033;-84
2023/10/23 05:29:49;;;;;;;2.13;1.02;;;10.60;99.90;;;;;;4142878;28;20068;-83
2023/10/23 05:31:49;;;;;;;2.55;0.77;;;10.60;99.90;;;;;;4144609;28;20161;-73
2023/10/23 05:33:51;;;;;;;3.03;2.00;;;10.60;99.90;;;;;;4150349;28;20056;-74
2023/10/23 05:36:06;;;;;;;5.00;3.10;;;10.60;99.90;;;;;;4144597;28;20116;-74
2023/10/23 05:38:06;;;;;;;2.88;2.20;;;10.60;99.90;;;;;;4148468;28;20684;-74
2023/10/23 05:40:07;;;;;;;1.95;1.50;;;10.60;99.90;;;;;;4150577;28;20041;-74
2023/10/23 05:42:08;;;;;;;2.75;1.48;;;10.60;99.90;;;;;;4144056;28;20034;-73
2023/10/23 05:44:09;;;;;;;1.95;1.20;;;10.60;99.90;;;;;;4150135;28;20409;-68
2023/10/23 05:46:09;;;;;;;2.42;1.38;;;10.50;99.90;;;;;;4150306;28;20030;-68
2023/10/23 05:48:10;;;;;;;1.52;1.30;;;10.60;99.90;;;;;;4144904;28;20034;-69
2023/10/23 05:50:10;;;;;;;2.35;1.40;;;10.60;99.90;;;;;;4148952;28;20034;-69
2023/10/23 05:52:11;;;;;;;3.10;1.33;;;10.60;99.90;;;;;;4158010;28;20504;-69
2023/10/23 05:54:12;;;;;;;6.70;1.38;;;10.60;99.90;;;;;;4152198;28;20422;-69
2023/10/23 05:56:12;;;;;;;2.67;1.35;;;10.60;99.90;;;;;;4149447;28;20034;-69
2023/10/23 05:58:13;;;;;;;1.65;1.33;;;10.50;99.90;;;;;;4145463;28;20121;-69
2023/10/23 06:00:14;;;;;;;1.60;1.10;;;10.50;99.90;;;;;;4144604;28;20046;-69
2023/10/23 06:02:15;;;;;;;3.30;1.17;;;10.50;99.90;;;;;;4153531;28;20037;-68
2023/10/23 06:04:16;;;;;;;0.98;0.90;;;10.40;99.90;;;;;;4148834;28;20371;-70
2023/10/23 06:06:16;;;;;;;0.88;0.85;;;10.40;99.90;;;;;;4148732;28;20101;-69
2023/10/23 06:08:17;;;;;;;1.15;0.93;;;10.40;99.90;;;;;;4149264;28;20129;-69
2023/10/23 06:10:17;;;;;;;1.58;0.70;;;10.30;99.90;;;;;;4147578;28;20498;-69
2023/10/23 06:12:18;;;;;;;0.70;0.60;;;10.30;99.90;;;;;;4154546;28;20041;-69
2023/10/23 06:14:19;;;;;;;1.40;0.80;;;10.30;99.90;;;;;;4150387;28;20030;-68
2023/10/23 06:16:19;;;;;;;0.88;0.88;;;10.30;99.90;;;;;;4152185;28;20034;-69
2023/10/23 06:18:20;;;;;;;0.77;0.77;;;10.20;99.90;;;;;;4148024;28;21199;-69
2023/10/23 06:20:20;;;;;;;0.80;0.80;;;10.30;99.90;;;;;;4139528;28;20034;-69
2023/10/23 06:22:21;;;;;;;1.67;0.90;;;10.30;99.90;;;;;;4141313;28;20542;-69
2023/10/23 06:24:22;;;;;;;1.50;0.95;;;10.30;99.90;;;;;;4141466;28;20045;-69
2023/10/23 06:26:22;;;;;;;2.85;1.27;;;10.30;99.90;;;;;;4142689;28;20371;-68
2023/10/23 06:28:23;;;;;;;1.80;0.90;;;10.30;99.90;;;;;;4140051;28;20096;-69
2023/10/23 06:30:23;;;;;;;1.33;1.05;;;10.30;99.90;;;;;;4107085;28;20501;-69
2023/10/23 06:32:24;;;;;;;2.47;1.20;;;10.40;99.90;;;;;;4126873;28;20050;-69
2023/10/23 06:34:25;;;;;;;1.45;0.90;;;10.30;99.90;;;;;;4125147;28;20034;-68
2023/10/23 06:36:25;;;;;;;0.93;0.68;;;10.30;99.90;;;;;;4121992;28;20181;-69
2023/10/23 06:38:26;;;;;;;1.00;0.77;;;10.30;99.90;;;;;;4124833;28;20118;-69
2023/10/23 06:40:26;;;;;;;4.18;0.90;;;10.20;99.90;;;;;;4123510;28;20553;-68
2023/10/23 06:42:27;;;;;;;1.85;1.00;;;10.20;99.90;;;;;;4124838;28;20039;-68
2023/10/23 06:44:28;;;;;;;2.15;1.27;;;10.20;99.90;;;;;;4124296;28;20053;-69
2023/10/23 06:46:29;;;;;;;1.85;1.42;;;10.30;99.90;;;;;;4105469;28;20462;-68
2023/10/23 06:48:30;;;;;;;1.48;1.17;;;10.30;99.90;;;;;;4124324;28;20030;-68
2023/10/23 06:50:31;;;;;;;4.63;1.70;;;10.30;99.90;;;;;;4121979;28;20138;-69
2023/10/23 06:52:32;;;;;;;1.67;1.20;;;10.30;99.90;;;;;;4108986;28;20051;-68
2023/10/23 06:54:33;;;;;;;2.28;1.10;;;10.40;99.90;;;;;;4124455;28;20041;-70
2023/10/23 06:56:33;;;;;;;2.38;1.50;;;10.40;99.90;;;;;;4126637;28;20114;-70
2023/10/23 06:58:34;;;;;;;1.95;1.30;;;10.50;99.90;;;;;;4129464;28;20045;-71
2023/10/23 07:00:34;;;;;;;3.83;1.75;;;10.50;99.90;;;;;;4124468;28;20046;-70
2023/10/23 07:02:35;;;;;;;3.20;1.58;;;10.60;99.90;;;;;;4126579;28;20045;-71
2023/10/23 07:04:36;;;;;;;3.95;2.15;;;10.60;99.90;;;;;;4125428;28;20045;-71
2023/10/23 07:06:36;;;;;;;2.90;1.73;;;10.70;99.90;;;;;;4126414;28;20042;-70
2023/10/23 07:08:39;;;;;;;2.53;1.60;;;10.80;99.90;;;;;;4129943;28;20546;-70
2023/10/23 07:10:39;;;;;;;2.63;1.50;;;10.90;99.90;;;;;;4127375;28;20544;-70
2023/10/23 07:12:40;;;;;;;4.53;2.08;;;11.10;99.90;;;;;;4126133;28;20369;-70
2023/10/23 07:14:40;;;;;;;6.53;2.08;;;11.40;99.90;;;;;;4127336;28;20097;-70
2023/10/23 07:16:42;;;;;;;3.78;2.13;;;11.50;99.90;;;;;;4127504;28;20045;-70
2023/10/23 07:18:42;;;;;;;3.25;2.10;;;11.70;99.90;;;;;;4125807;28;20030;-70
2023/10/23 07:21:01;;;;;;;4.60;2.30;;;12.00;99.90;;;;;;4125050;28;20132;-70
2023/10/23 07:23:01;;;;;;;4.40;2.13;;;12.30;99.90;;;;;;4129397;28;20038;-70
2023/10/23 07:25:02;;;;;;;4.65;2.13;;;12.60;99.90;;;;;;4124174;28;20040;-71
2023/10/23 07:27:03;;;;;;;2.95;1.80;;;12.80;99.90;;;;;;4125435;28;20154;-70
2023/10/23 07:29:04;;;;;;;2.17;1.80;;;13.10;99.90;;;;;;4125723;28;20066;-70
2023/10/23 07:31:06;;;;;;;2.75;1.92;;;13.40;99.90;;;;;;4124058;28;20052;-71
2023/10/23 07:33:06;;;;;;;4.30;2.20;;;13.60;99.90;;;;;;4107878;28;20069;-70
2023/10/23 07:35:10;;;;;;;2.97;2.15;;;13.90;99.90;;;;;;4111110;28;20039;-72
2023/10/23 07:37:17;;;;;;;5.30;2.60;;;14.20;99.90;;;;;;4108510;28;20047;-71
2023/10/23 07:39:18;;;;;;;5.88;3.25;;;14.50;99.90;;;;;;4106299;28;20039;-71
2023/10/23 07:41:19;;;;;;;5.18;2.83;;;14.80;99.90;;;;;;4123866;28;20112;-71
2023/10/23 07:43:19;;;;;;;4.15;2.30;;;15.00;99.90;;;;;;4125281;28;20044;-71
2023/10/23 07:45:20;;;;;;;4.05;2.45;;;15.10;99.90;;;;;;4105010;28;20034;-70
2023/10/23 07:47:20;;;;;;;7.15;2.45;;;15.40;99.90;;;;;;4122263;28;20117;-71
2023/10/23 07:49:23;;;;;;;5.28;2.55;;;15.50;99.90;;;;;;4123952;28;20394;-71
2023/10/23 07:51:25;;;;;;;;;;;15.70;99.90;;;;;;4107943;28;20085;-71
2023/10/23 07:53:26;;;;;;;7.00;3.10;;;15.70;99.90;;;;;;4121637;28;19910;-70
2023/10/23 07:55:27;;;;;;;5.18;2.25;;;15.80;99.90;;;;;;4103136;28;20133;-70
2023/10/23 07:57:29;;;;;;;3.83;2.30;;;15.90;99.90;;;;;;4121678;28;20066;-71
2023/10/23 07:59:31;;;;;;;4.45;2.15;;;16.00;99.90;;;;;;4121819;28;20038;-70
2023/10/23 08:01:31;;;;;;;6.75;2.55;;;16.10;99.90;;;;;;4120034;28;20057;-71
2023/10/23 08:03:33;;;;;;;5.07;2.15;;;16.00;99.90;;;;;;4121690;28;20034;-70
2023/10/23 08:05:34;;;;;;;4.07;2.10;;;15.90;99.90;;;;;;4121412;28;20038;-71
2023/10/23 08:07:34;;;;;;;4.30;2.17;;;15.90;99.90;;;;;;4120818;28;20270;-72
2023/10/23 08:09:35;;;;;;;5.32;2.63;;;16.00;99.90;;;;;;4122222;28;20542;-71
2023/10/23 08:11:35;;;;;;;5.38;2.42;;;15.90;99.90;;;;;;4118697;28;20042;-71
2023/10/23 08:13:37;;;;;;;3.97;2.50;;;15.80;99.90;;;;;;4121047;28;20042;-71
2023/10/23 08:15:40;;;;;;;4.07;2.25;;;15.90;99.90;;;;;;4120942;28;20061;-70
2023/10/23 08:17:40;;;;;;;5.30;2.55;;;15.90;99.90;;;;;;4120873;28;20486;-70
2023/10/23 08:19:41;;;;;;;3.70;2.03;;;15.90;99.90;;;;;;4121464;28;20045;-70
2023/10/23 08:21:42;;;;;;;3.55;2.22;;;15.90;99.90;;;;;;4120355;28;20430;-70
2023/10/23 08:23:44;;;;;;;3.42;2.20;;;15.90;99.90;;;;;;4121979;28;20041;-70
2023/10/23 08:25:45;;;;;;;;;;;15.90;99.90;;;;;;4120840;28;20096;-70
2023/10/23 08:27:46;;;;;;;4.47;2.35;;;15.90;99.90;;;;;;4121003;28;19917;-70
2023/10/23 08:29:46;;;;;;;5.55;2.35;;;15.90;99.90;;;;;;4127671;28;20100;-70
2023/10/23 08:31:47;;;;;;;5.63;2.45;;;15.90;99.90;;;;;;4125006;28;20679;-70
2023/10/23 08:33:47;;;;;;;4.93;2.15;;;15.80;99.90;;;;;;4126780;28;20061;-70
2023/10/23 08:35:48;;;;;;;3.45;2.15;;;15.90;99.90;;;;;;4127032;28;20486;-70
2023/10/23 08:37:48;;;;;;;7.20;2.70;;;15.80;99.90;;;;;;4125955;28;20508;-70
2023/10/23 08:39:49;;;;;;;5.07;2.47;;;15.70;99.90;;;;;;4125371;28;20513;-70
2023/10/23 08:41:50;;;;;;;4.53;2.08;;;15.70;99.90;;;;;;4125516;28;20034;-69
2023/10/23 08:43:51;;;;;;;2.80;1.98;;;15.70;99.90;;;;;;4127114;28;20518;-69
2023/10/23 08:45:53;;;;;;;4.88;2.40;;;15.80;99.90;;;;;;4123264;28;20234;-69
2023/10/23 08:47:54;;;;;;;5.13;2.70;;;15.80;99.90;;;;;;4127170;28;20065;-70
2023/10/23 08:49:59;;;;;;;3.10;2.00;;;15.70;99.90;;;;;;4128804;28;20046;-70
2023/10/23 08:52:02;;;;;;;5.63;2.50;;;15.70;99.90;;;;;;4107537;28;20398;-69
2023/10/23 08:54:07;;;;;;;3.38;2.28;;;15.70;99.90;;;;;;4124757;28;20045;-69
2023/10/23 08:56:08;;;;;;;5.25;2.13;;;15.70;99.90;;;;;;4103149;28;20058;-69
2023/10/23 08:58:13;;;;;;;7.70;2.42;;;15.70;99.90;;;;;;4126998;28;20371;-69
2023/10/23 09:00:14;;;;;;;6.38;2.40;;;15.60;99.90;;;;;;4127629;28;20048;-69
2023/10/23 09:02:15;;;;;;;5.72;2.30;;;15.40;99.90;;;;;;4089926;28;20550;-69
2023/10/23 09:04:16;;;;;;;3.88;2.33;;;15.40;99.90;;;;;;4127767;28;20046;-69
2023/10/23 09:06:20;;;;;;;9.68;2.67;;;15.30;99.90;;;;;;4125884;28;20030;-69
2023/10/23 09:08:20;;;;;;;2.90;2.30;;;15.40;99.90;;;;;;4126223;28;20136;-69
2023/10/23 09:10:21;;;;;;;4.97;2.90;;;15.20;99.90;;;;;;4128904;28;20070;-69
2023/10/23 09:12:33;;;;;;;6.30;2.80;;;15.30;99.90;;;;;;4125053;28;20490;-69
2023/10/23 09:14:35;;;;;;;4.20;2.10;;;15.30;99.90;;;;;;4127921;28;20038;-78
2023/10/23 09:16:36;;;;;;;5.43;2.30;;;15.30;99.90;;;;;;4125639;28;20026;-77
2023/10/23 09:18:51;;;;;;;3.45;1.98;;;15.30;99.90;;;;;;4124477;28;20042;-78
2023/10/23 09:20:51;;;;;;;4.70;2.45;;;15.30;99.90;;;;;;4125740;28;20048;-78
2023/10/23 09:22:53;;;;;;;4.25;2.03;;;15.40;99.90;;;;;;4128147;28;20424;-78
2023/10/23 09:24:54;;;;;;;7.72;2.53;;;15.40;99.90;;;;;;4109630;28;20045;-78
2023/10/23 09:26:55;;;;;;;4.80;2.30;;;15.40;99.90;;;;;;4127453;28;20514;-77
2023/10/23 09:28:56;;;;;;;5.15;2.47;;;15.50;99.90;;;;;;4131936;28;20125;-78
2023/10/23 09:30:57;;;;;;;3.28;2.00;;;15.50;99.90;;;;;;4131237;28;20102;-77
2023/10/23 09:32:58;;;;;;;4.35;2.50;;;15.50;99.90;;;;;;4127868;28;20038;-77
2023/10/23 09:34:59;;;;;;;5.35;2.17;;;15.50;99.90;;;;;;4111738;28;20078;-77
2023/10/23 09:37:00;;;;;;;3.85;1.83;;;15.50;99.90;;;;;;4110999;28;20379;-78
2023/10/23 09:39:02;;;;;;;3.90;2.13;;;15.50;99.90;;;;;;4129897;28;20493;-77
2023/10/23 09:41:03;;;;;;;5.82;2.70;;;15.50;99.90;;;;;;4127110;28;20399;-78
2023/10/23 09:43:06;;;;;;;5.38;2.00;;;15.50;99.90;;;;;;4128022;28;20042;-78
2023/10/23 09:45:08;;;;;;;8.40;1.95;;;15.50;99.90;;;;;;4127015;28;20430;-77
2023/10/23 09:47:11;;;;;;;6.82;2.40;;;15.60;99.90;;;;;;4131761;28;20042;-77
2023/10/23 09:49:11;;;;;;;4.03;1.70;;;15.50;99.90;;;;;;4128747;28;20038;-78
2023/10/23 09:51:15;;;;;;;3.83;2.05;;;15.60;99.90;;;;;;4130334;28;20042;-78
2023/10/23 09:53:16;;;;;;;3.58;2.08;;;15.60;99.90;;;;;;4128456;28;20586;-76
2023/10/23 09:55:19;;;;;;;5.33;2.53;;;15.60;99.90;;;;;;4130689;28;20736;-77
2023/10/23 09:57:23;;;;;;;4.70;2.28;;;15.50;99.90;;;;;;4130184;28;20470;-77
2023/10/23 09:59:39;;;;;;;4.18;2.15;;;15.60;99.90;;;;;;4111054;28;20065;-77
2023/10/23 10:01:41;;;;;;;3.90;2.10;;;15.50;99.90;;;;;;4108763;28;20073;-78
2023/10/23 10:03:43;;;;;;;5.72;2.45;;;15.60;99.90;;;;;;4123602;28;20045;-78
2023/10/23 10:05:57;;;;;;;5.72;2.67;;;15.50;99.90;;;;;;4124852;28;20061;-76
2023/10/23 10:08:08;;;;;;;3.92;2.60;;;15.60;99.90;;;;;;4126679;28;20034;-76
2023/10/23 10:10:10;;;;;;;5.00;2.85;;;15.60;99.90;;;;;;4126691;28;20065;-78
2023/10/23 10:12:11;;;;;;;5.37;3.07;;;15.60;99.90;;;;;;4125488;28;20442;-76
2023/10/23 10:14:14;;;;;;;5.68;3.00;;;15.60;99.90;;;;;;4129576;28;20109;-77
2023/10/23 10:16:15;;;;;;;6.35;3.45;;;15.60;99.90;;;;;;4128676;28;20049;-78
2023/10/23 10:18:16;;;;;;;7.78;3.70;;;15.60;99.90;;;;;;4127229;28;20034;-78
2023/10/23 10:20:21;;;;;;;6.50;3.72;;;15.50;99.90;;;;;;4130201;28;20049;-77
2023/10/23 10:22:34;;;;;;;5.15;3.45;;;15.60;99.90;;;;;;4130993;28;20637;-77
2023/10/23 10:24:37;;;;;;;6.75;3.15;;;15.60;99.90;;;;;;4128605;28;21147;-71
2023/10/23 10:26:38;;;;;;;10.30;3.60;;;15.60;99.90;;;;;;4108614;28;20192;-71
2023/10/23 10:28:40;;;;;;;6.35;3.22;;;15.60;99.90;;;;;;4132334;28;20064;-72
2023/10/23 10:30:47;;;;;;;6.57;2.97;;;15.50;99.90;;;;;;4138245;28;20081;-71
2023/10/23 10:32:59;;;;;;;7.25;3.45;;;15.50;99.90;;;;;;4138275;28;20815;-72